Time;durP1;ratioP1;P1;durP2;ratioP2;P2;SDS_P1;SDS_P2;PMS_P1;PMS_P2;Temp;Humidity;BMP_temperature;BMP_pressure;BME280_temperature;BME280_humidity;BME280_pressure;Samples;Min_cycle;Max_cycle;Signal;HPM_P1;HPM_P2
2022/06/22 02:09:37;;;;;;;4.07;2.08;;;21.40;99.90;;;;;;5695458;22;21051;-87
2022/06/22 02:12:18;;;;;;;3.33;1.90;;;21.30;99.90;;;;;;4966260;28;20042;-87
2022/06/22 02:14:52;;;;;;;4.03;2.15;;;21.40;99.90;;;;;;4990326;28;20030;-88
2022/06/22 02:17:23;;;;;;;4.00;2.25;;;21.30;99.90;;;;;;4969760;28;20041;-87
2022/06/22 02:20:26;;;;;;;3.88;2.10;;;21.20;99.90;;;;;;4971640;28;20027;-87
2022/06/22 02:22:58;;;;;;;3.92;2.40;;;21.20;99.90;;;;;;4938810;28;20050;-87
2022/06/22 02:25:27;;;;;;;4.50;2.22;;;21.20;99.90;;;;;;4985557;28;20113;-87
2022/06/22 02:27:53;;;;;;;4.32;2.10;;;21.20;99.90;;;;;;4980163;28;20045;-87
2022/06/22 02:30:19;;;;;;;4.40;2.10;;;21.20;99.90;;;;;;5000605;28;20022;-87
2022/06/22 02:32:45;;;;;;;3.75;2.00;;;21.20;99.90;;;;;;4981546;28;20038;-88
2022/06/22 02:35:13;;;;;;;3.78;2.10;;;21.20;99.90;;;;;;4973485;28;20046;-87
2022/06/22 02:37:44;;;;;;;4.20;1.90;;;21.10;99.90;;;;;;4967012;28;20114;-87
2022/06/22 02:40:19;;;;;;;3.72;2.00;;;21.00;99.90;;;;;;4980961;28;20027;-87
2022/06/22 02:45:30;;;;;;;4.50;2.10;;;21.00;99.90;;;;;;4984086;28;20037;-87
2022/06/22 02:48:01;;;;;;;3.88;2.28;;;20.90;99.90;;;;;;4988023;28;20022;-87
2022/06/22 02:50:49;;;;;;;4.22;1.88;;;20.90;99.90;;;;;;4974190;28;20022;-87
2022/06/22 02:53:25;;;;;;;5.55;2.60;;;20.90;99.90;;;;;;4989137;28;20030;-87
2022/06/22 02:55:52;;;;;;;4.28;2.30;;;20.90;99.90;;;;;;4970823;28;20029;-87
2022/06/22 02:58:31;;;;;;;3.50;2.05;;;20.90;99.90;;;;;;4969595;28;20081;-87
2022/06/22 03:01:05;;;;;;;4.22;2.38;;;20.90;99.90;;;;;;4990498;28;20109;-87
2022/06/22 03:03:33;;;;;;;4.60;2.28;;;20.90;99.90;;;;;;4985451;28;20037;-87
2022/06/22 03:05:58;;;;;;;4.20;2.13;;;20.90;99.90;;;;;;4990885;28;20283;-87
2022/06/22 03:08:25;;;;;;;4.40;2.53;;;20.90;99.90;;;;;;4991335;28;20406;-87
2022/06/22 03:10:54;;;;;;;3.55;2.25;;;20.90;99.90;;;;;;4964414;28;20045;-87
2022/06/22 03:13:32;;;;;;;4.60;2.30;;;20.80;99.90;;;;;;4985124;28;20521;-87
2022/06/22 03:15:59;;;;;;;3.75;2.42;;;20.80;99.90;;;;;;4981466;28;20038;-86
2022/06/22 03:18:28;;;;;;;4.60;2.40;;;20.80;99.90;;;;;;4985391;28;20080;-86
2022/06/22 03:20:58;;;;;;;3.70;2.25;;;20.80;99.90;;;;;;4986132;28;20487;-86
2022/06/22 03:23:34;;;;;;;5.30;2.83;;;20.80;99.90;;;;;;4972915;28;20026;-87
2022/06/22 03:26:06;;;;;;;5.55;2.08;;;20.80;99.90;;;;;;4972833;28;20042;-87
2022/06/22 03:28:37;;;;;;;4.40;2.45;;;20.80;99.90;;;;;;4985529;28;20034;-87
2022/06/22 03:31:11;;;;;;;4.55;2.60;;;20.80;99.90;;;;;;4967513;28;20025;-86
2022/06/22 03:34:08;;;;;;;4.85;2.45;;;20.80;99.90;;;;;;4969469;28;20037;-87
2022/06/22 03:36:57;;;;;;;6.25;2.47;;;20.70;99.90;;;;;;4978697;28;20039;-87
2022/06/22 03:39:28;;;;;;;3.88;2.40;;;20.70;99.90;;;;;;4968200;28;20558;-87
2022/06/22 03:42:00;;;;;;;4.32;2.25;;;20.70;99.90;;;;;;4971697;28;20035;-87
2022/06/22 03:44:38;;;;;;;5.07;2.38;;;20.60;99.90;;;;;;4972868;28;20030;-87
2022/06/22 03:47:28;;;;;;;6.18;2.60;;;20.60;99.90;;;;;;4981494;28;20543;-87
2022/06/22 03:50:00;;;;;;;4.50;2.65;;;20.60;99.90;;;;;;4972903;28;20035;-87
2022/06/22 03:52:38;;;;;;;5.72;2.50;;;20.50;99.90;;;;;;4972535;28;20027;-87
2022/06/22 03:55:54;;;;;;;4.05;2.38;;;20.50;99.90;;;;;;4973463;28;20030;-87
2022/06/22 03:58:20;;;;;;;4.07;2.50;;;20.50;99.90;;;;;;4988381;28;20406;-87
2022/06/22 04:00:47;;;;;;;6.88;2.75;;;20.50;99.90;;;;;;4972912;28;20479;-88
2022/06/22 04:03:21;;;;;;;4.25;2.45;;;20.50;99.90;;;;;;4973783;28;20034;-87
2022/06/22 04:06:03;;;;;;;3.58;2.53;;;20.50;99.90;;;;;;5000138;28;20074;-87
2022/06/22 04:08:40;;;;;;;4.25;2.78;;;20.60;99.90;;;;;;4994263;28;20192;-87
2022/06/22 04:11:17;;;;;;;4.68;2.60;;;20.60;99.90;;;;;;4989244;28;20026;-87
2022/06/22 04:14:10;;;;;;;5.38;2.55;;;20.70;99.90;;;;;;4965270;28;20089;-87
2022/06/22 04:16:43;;;;;;;5.32;2.75;;;20.70;99.90;;;;;;4946148;28;20051;-87
2022/06/22 04:19:15;;;;;;;3.97;2.50;;;20.80;99.90;;;;;;4984250;28;20101;-87
2022/06/22 04:21:49;;;;;;;5.15;2.53;;;20.80;99.90;;;;;;4982230;28;20035;-87
2022/06/22 04:24:27;;;;;;;4.30;2.30;;;20.80;99.90;;;;;;4973501;28;20030;-87
2022/06/22 04:27:24;;;;;;;4.80;2.70;;;20.80;99.90;;;;;;4982680;28;20084;-87
2022/06/22 04:30:05;;;;;;;4.03;2.47;;;20.80;99.90;;;;;;4988723;28;20486;-87
2022/06/22 04:32:39;;;;;;;6.68;2.50;;;20.90;99.90;;;;;;4969206;28;20038;-87
2022/06/22 04:35:28;;;;;;;4.75;2.70;;;21.00;99.90;;;;;;4972190;28;20030;-86
2022/06/22 04:38:00;;;;;;;3.45;2.17;;;21.00;99.90;;;;;;4969786;28;20065;-87
2022/06/22 04:40:54;;;;;;;5.20;2.70;;;21.10;99.90;;;;;;4971274;28;20184;-87
2022/06/22 04:43:20;;;;;;;5.22;2.92;;;21.20;99.90;;;;;;4992592;28;20100;-87
2022/06/22 04:45:47;;;;;;;4.07;2.40;;;21.20;99.90;;;;;;4992521;28;20026;-87
2022/06/22 04:48:19;;;;;;;4.45;2.35;;;21.20;99.90;;;;;;4993440;28;20077;-87
2022/06/22 04:50:47;;;;;;;4.47;2.38;;;21.20;99.90;;;;;;4993614;28;20078;-87
2022/06/22 04:53:23;;;;;;;4.53;2.60;;;21.20;99.90;;;;;;4990722;28;20487;-87
2022/06/22 04:56:03;;;;;;;4.32;2.30;;;21.20;99.90;;;;;;4975881;28;20730;-87
2022/06/22 04:58:34;;;;;;;6.60;2.67;;;21.20;99.90;;;;;;4973578;28;20110;-87
2022/06/22 05:01:02;;;;;;;7.10;2.53;;;21.20;99.90;;;;;;4991948;28;20026;-87
2022/06/22 05:03:29;;;;;;;5.43;2.55;;;21.20;99.90;;;;;;4974630;28;20034;-86
2022/06/22 05:06:01;;;;;;;4.45;2.53;;;21.20;99.90;;;;;;4973503;28;20026;-86
2022/06/22 05:08:33;;;;;;;4.53;2.55;;;21.20;99.90;;;;;;4991706;28;20168;-86
2022/06/22 05:11:11;;;;;;;7.32;2.78;;;21.30;99.90;;;;;;4967176;28;20121;-86
2022/06/22 05:13:47;;;;;;;3.80;2.33;;;21.40;99.90;;;;;;4986946;28;20063;-87
2022/06/22 05:16:16;;;;;;;5.47;2.80;;;21.40;99.90;;;;;;4991628;28;20042;-87
2022/06/22 05:18:45;;;;;;;4.00;2.33;;;21.50;99.90;;;;;;4988237;28;20043;-87
2022/06/22 05:21:17;;;;;;;4.22;2.50;;;21.50;99.90;;;;;;4974820;28;20060;-86
2022/06/22 05:23:48;;;;;;;5.00;2.88;;;21.60;99.90;;;;;;4991718;28;20031;-87
2022/06/22 05:26:18;;;;;;;3.78;2.05;;;21.60;99.90;;;;;;4990978;28;20045;-87
2022/06/22 05:29:01;;;;;;;5.28;2.22;;;21.50;99.90;;;;;;4975388;28;20034;-87
2022/06/22 05:31:33;;;;;;;4.28;2.13;;;21.30;99.90;;;;;;4985554;28;20059;-87
2022/06/22 05:34:07;;;;;;;4.35;2.55;;;21.50;99.90;;;;;;4989649;28;20014;-87
2022/06/22 05:36:38;;;;;;;5.35;2.47;;;21.60;99.90;;;;;;4988885;28;20094;-87
2022/06/22 05:39:05;;;;;;;5.50;2.97;;;21.70;99.90;;;;;;4992177;28;20498;-87
2022/06/22 05:41:34;;;;;;;5.18;2.72;;;21.80;99.90;;;;;;4985704;28;20105;-87
2022/06/22 05:44:05;;;;;;;4.22;2.35;;;22.00;99.90;;;;;;4987495;28;20026;-87
2022/06/22 05:46:32;;;;;;;4.85;3.00;;;22.20;99.90;;;;;;4984566;28;20049;-87
2022/06/22 05:48:58;;;;;;;4.88;2.50;;;22.20;99.90;;;;;;4972292;28;20031;-87
2022/06/22 05:52:02;;;;;;;4.45;2.33;;;22.10;99.90;;;;;;4990509;28;20057;-86
2022/06/22 05:54:44;;;;;;;5.75;2.22;;;22.20;99.90;;;;;;4989789;28;20034;-86
2022/06/22 05:57:09;;;;;;;7.63;2.95;;;22.20;99.90;;;;;;4967450;28;20050;-86
2022/06/22 05:59:45;;;;;;;4.70;2.45;;;22.10;99.90;;;;;;4990116;28;20142;-86
2022/06/22 06:02:25;;;;;;;4.72;2.83;;;21.90;99.90;;;;;;4989239;28;20018;-86
2022/06/22 06:05:05;;;;;;;4.70;2.58;;;21.90;99.90;;;;;;4991205;28;20025;-86
2022/06/22 06:07:54;;;;;;;4.53;2.70;;;21.80;99.90;;;;;;4974458;28;20018;-86
2022/06/22 06:10:30;;;;;;;4.18;2.70;;;21.80;99.90;;;;;;4973380;28;20038;-86
2022/06/22 06:13:21;;;;;;;4.90;2.83;;;21.70;99.90;;;;;;4969649;28;20061;-87
2022/06/22 06:15:55;;;;;;;5.20;2.63;;;21.60;99.90;;;;;;4972592;28;20037;-88
2022/06/22 06:18:27;;;;;;;4.40;2.50;;;21.50;99.90;;;;;;4971477;28;20030;-86
2022/06/22 06:21:14;;;;;;;5.28;3.20;;;21.50;99.90;;;;;;4991056;28;20088;-86
2022/06/22 06:23:49;;;;;;;5.20;3.00;;;21.50;99.90;;;;;;4983208;28;20141;-85
2022/06/22 06:29:50;;;;;;;5.35;2.90;;;21.40;99.90;;;;;;4990857;28;20037;-86
2022/06/22 06:32:26;;;;;;;5.63;2.70;;;21.40;99.90;;;;;;4971567;28;20033;-86
2022/06/22 06:34:56;;;;;;;6.63;3.03;;;21.30;99.90;;;;;;4973662;28;20030;-86
2022/06/22 06:37:30;;;;;;;4.60;2.92;;;21.30;99.90;;;;;;4972781;28;20030;-86
2022/06/22 06:39:57;;;;;;;6.80;3.97;;;21.30;99.90;;;;;;4985791;28;20804;-86
2022/06/22 06:42:38;;;;;;;10.57;3.50;;;21.20;99.90;;;;;;4967726;28;20030;-87
2022/06/22 06:45:15;;;;;;;5.57;2.92;;;21.20;99.90;;;;;;4987375;28;20018;-87
2022/06/22 06:47:48;;;;;;;5.20;3.05;;;21.10;99.90;;;;;;4989687;28;20029;-85
2022/06/22 06:50:32;;;;;;;5.25;2.78;;;21.00;99.90;;;;;;4993882;28;20092;-84
2022/06/22 06:53:17;;;;;;;5.88;3.00;;;21.00;99.90;;;;;;4993337;28;20038;-84
2022/06/22 06:55:55;;;;;;;5.53;3.05;;;20.80;99.90;;;;;;4990282;28;20117;-84
2022/06/22 06:58:40;;;;;;;7.25;3.00;;;20.70;99.90;;;;;;4971028;28;20490;-85
2022/06/22 07:01:08;;;;;;;6.47;2.70;;;20.70;99.90;;;;;;4988901;28;20033;-87
2022/06/22 07:03:39;;;;;;;4.53;2.67;;;20.60;99.90;;;;;;4972850;28;20034;-87
2022/06/22 07:06:05;;;;;;;4.53;2.35;;;20.70;99.90;;;;;;4987685;28;20057;-86
2022/06/22 07:08:37;;;;;;;4.32;2.67;;;20.70;99.90;;;;;;4987904;28;20549;-86
2022/06/22 07:11:14;;;;;;;4.20;2.40;;;20.70;99.90;;;;;;4988942;28;20070;-86
2022/06/22 07:14:11;;;;;;;4.18;2.38;;;20.80;99.90;;;;;;4988182;28;20091;-86
2022/06/22 07:16:41;;;;;;;4.55;2.42;;;20.60;99.90;;;;;;4985001;28;20093;-86
2022/06/22 07:19:28;;;;;;;4.93;2.92;;;20.80;99.90;;;;;;4973003;28;20089;-86
2022/06/22 07:22:15;;;;;;;4.93;2.85;;;20.90;99.90;;;;;;4973422;28;20604;-86
2022/06/22 07:25:06;;;;;;;5.53;2.85;;;20.90;99.90;;;;;;4988702;28;20026;-85
2022/06/22 07:27:49;;;;;;;4.43;2.83;;;20.90;99.90;;;;;;4996766;28;20121;-85
2022/06/22 07:30:23;;;;;;;6.50;3.38;;;20.90;99.90;;;;;;4999619;28;20019;-86
2022/06/22 07:32:52;;;;;;;5.70;3.63;;;20.90;99.90;;;;;;4983901;28;20033;-85
2022/06/22 07:35:25;;;;;;;6.80;3.33;;;20.90;99.90;;;;;;4995691;28;20027;-85
2022/06/22 07:38:05;;;;;;;6.28;3.40;;;20.90;99.90;;;;;;5009591;28;20012;-86
2022/06/22 07:40:33;;;;;;;5.05;3.03;;;20.80;99.90;;;;;;5000991;28;20029;-86
2022/06/22 07:43:31;;;;;;;5.10;3.08;;;20.90;99.90;;;;;;4998846;28;20023;-87
2022/06/22 07:45:57;;;;;;;6.22;3.33;;;20.90;99.90;;;;;;4994621;28;20109;-87
2022/06/22 08:53:35;;;;;;;;;;;;;;;;;;;;;
2022/06/22 10:33:27;;;;;;;;;;;;;;;;;;;;;
2022/06/22 11:52:27;;;;;;;4.55;3.30;;;21.20;99.90;;;;;;5019394;22;20177;-87
2022/06/22 11:55:12;;;;;;;5.28;2.90;;;21.20;99.90;;;;;;4995201;28;20044;-87
2022/06/22 11:58:02;;;;;;;4.75;2.67;;;21.20;99.90;;;;;;4985988;28;20581;-86
2022/06/22 12:01:01;;;;;;;5.78;2.40;;;21.10;99.90;;;;;;4991966;28;20026;-85
2022/06/22 12:03:53;;;;;;;;;;;;;;;;;;;;;
2022/06/22 12:06:44;;;;;;;7.28;2.25;;;21.20;99.90;;;;;;5002781;28;20041;-87
2022/06/22 12:09:52;;;;;;;4.88;2.22;;;21.10;99.90;;;;;;4947999;28;20052;-87
2022/06/22 12:12:27;;;;;;;3.35;1.58;;;21.40;99.90;;;;;;4949787;28;20037;-86
2022/06/22 12:15:16;;;;;;;5.72;2.00;;;21.30;99.90;;;;;;4995154;28;20018;-87
2022/06/22 12:21:22;;;;;;;3.97;2.03;;;21.40;99.90;;;;;;4989926;28;20037;-86
2022/06/22 12:24:31;;;;;;;6.75;2.25;;;21.50;99.90;;;;;;4990866;28;20109;-87
2022/06/22 12:27:46;;;;;;;4.90;1.48;;;21.50;99.90;;;;;;4989948;28;20030;-86
2022/06/22 12:30:50;;;;;;;5.82;1.83;;;21.40;99.90;;;;;;4996037;28;20525;-85
2022/06/22 12:33:26;;;;;;;3.45;1.45;;;21.60;99.90;;;;;;5011732;28;20026;-85
2022/06/22 12:36:16;;;;;;;4.80;1.90;;;21.80;99.90;;;;;;4993709;28;20101;-85
2022/06/22 12:38:49;;;;;;;3.55;1.25;;;21.80;99.90;;;;;;4998508;28;20056;-87
2022/06/22 12:41:36;;;;;;;4.50;1.40;;;21.80;99.90;;;;;;4995981;28;20728;-85
2022/06/22 12:44:21;;;;;;;4.38;1.38;;;21.70;99.90;;;;;;4996649;28;20042;-86
2022/06/22 12:47:05;;;;;;;3.63;1.20;;;21.70;99.90;;;;;;4995651;28;20095;-86
2022/06/22 12:50:06;;;;;;;6.00;1.80;;;21.50;99.90;;;;;;5006296;28;20029;-86
2022/06/22 12:52:44;;;;;;;;;;;21.40;99.90;;;;;;4991303;28;20034;-86
2022/06/22 12:55:19;;;;;;;3.05;1.55;;;21.50;99.90;;;;;;5011077;28;19906;-86
2022/06/22 12:57:57;;;;;;;3.72;1.45;;;21.60;99.90;;;;;;4996891;28;20034;-86
2022/06/22 13:00:28;;;;;;;1.98;0.95;;;21.70;99.90;;;;;;5009929;28;20026;-87
2022/06/22 13:02:58;;;;;;;;;;;21.70;99.90;;;;;;4996013;28;20096;-85
2022/06/22 13:05:34;;;;;;;3.25;1.30;;;21.40;99.90;;;;;;5008206;28;19905;-86
2022/06/22 13:08:03;;;;;;;4.13;1.10;;;21.40;99.90;;;;;;5006837;28;20026;-86
2022/06/22 13:10:35;;;;;;;4.90;1.27;;;21.70;99.90;;;;;;4999502;28;20026;-85
2022/06/22 13:13:22;;;;;;;5.18;1.02;;;21.80;99.90;;;;;;4989759;28;20030;-87
2022/06/22 13:16:18;;;;;;;6.85;1.33;;;21.90;99.90;;;;;;4995210;28;20065;-87
2022/06/22 13:19:27;;;;;;;5.03;1.13;;;22.10;99.90;;;;;;4991471;28;20057;-87
2022/06/22 13:22:26;;;;;;;3.25;1.25;;;22.30;99.90;;;;;;5005226;28;20561;-87
2022/06/22 13:25:21;;;;;;;4.32;1.20;;;22.40;99.90;;;;;;5010022;28;20026;-86
2022/06/22 13:28:32;;;;;;;5.35;1.48;;;22.40;99.90;;;;;;4991010;28;20030;-86
2022/06/22 13:31:39;;;;;;;7.18;1.27;;;22.10;99.90;;;;;;4993985;28;20038;-87
2022/06/22 13:34:13;;;;;;;4.50;1.52;;;22.20;99.90;;;;;;4957554;28;20022;-87
2022/06/22 13:36:59;;;;;;;4.57;1.17;;;22.00;99.90;;;;;;4999730;28;20722;-87
2022/06/22 13:39:53;;;;;;;5.22;1.17;;;22.00;99.90;;;;;;5001022;28;20092;-88
2022/06/22 13:42:59;;;;;;;7.18;1.48;;;22.10;99.90;;;;;;5000820;28;20034;-87
2022/06/22 13:45:42;;;;;;;2.47;1.10;;;22.20;99.90;;;;;;4986567;28;20376;-87
2022/06/22 13:48:34;;;;;;;5.63;1.17;;;22.50;99.90;;;;;;4984702;28;20022;-86
2022/06/22 13:54:32;;;;;;;3.17;1.13;;;22.90;99.90;;;;;;4994124;28;20008;-88
2022/06/22 13:57:36;;;;;;;3.50;1.20;;;23.30;99.90;;;;;;5004410;28;20030;-87
2022/06/22 14:01:03;;;;;;;5.70;1.05;;;23.70;99.90;;;;;;4982798;28;20422;-89
2022/06/22 14:13:36;;;;;;;5.50;1.45;;;24.70;99.90;;;;;;4889722;29;21590;-88
2022/06/22 14:30:26;;;;;;;3.72;0.95;;;24.20;99.90;;;;;;4873527;29;19924;-88
2022/06/22 14:33:38;;;;;;;3.85;1.17;;;24.40;99.90;;;;;;4890740;29;20028;-88
2022/06/22 14:47:44;;;;;;;4.72;0.80;;;24.40;99.90;;;;;;4921255;29;20040;-89
2022/06/22 14:51:12;;;;;;;1.92;0.70;;;24.30;99.90;;;;;;4983109;28;20034;-89
2022/06/22 14:53:59;;;;;;;4.15;0.70;;;24.20;99.90;;;;;;4968600;28;20562;-88
2022/06/22 14:56:29;;;;;;;7.72;1.55;;;24.00;99.90;;;;;;4970739;28;20045;-87
2022/06/22 14:59:28;;;;;;;4.38;1.08;;;23.90;99.90;;;;;;4984401;28;20034;-86
2022/06/22 15:02:17;;;;;;;4.20;1.10;;;23.80;99.90;;;;;;4966923;28;20022;-87
2022/06/22 15:04:58;;;;;;;2.80;0.70;;;23.60;99.90;;;;;;4998979;28;20025;-87
2022/06/22 15:07:35;;;;;;;4.47;0.80;;;23.40;99.90;;;;;;4980400;28;20024;-87
2022/06/22 15:10:53;;;;;;;3.65;0.80;;;23.30;99.90;;;;;;4997708;28;20035;-87
2022/06/22 15:13:59;;;;;;;;;;;;;;;;;;;;;
2022/06/22 15:20:37;;;;;;;6.40;1.30;;;23.40;99.90;;;;;;4963893;28;20031;-88
2022/06/22 15:23:44;;;;;;;6.15;1.08;;;23.40;99.90;;;;;;4899820;29;20144;-87
2022/06/22 15:26:46;;;;;;;;;;;;;;;;;;;;;
2022/06/22 15:29:56;;;;;;;4.50;0.68;;;23.40;99.90;;;;;;4977825;28;20048;-87
2022/06/22 15:33:42;;;;;;;4.22;1.10;;;23.20;99.90;;;;;;4974098;28;20061;-87
2022/06/22 15:36:42;;;;;;;7.28;1.63;;;23.20;99.90;;;;;;4922968;29;20198;-87
2022/06/22 15:39:54;;;;;;;2.53;1.02;;;23.30;99.90;;;;;;4984241;28;20062;-87
2022/06/22 15:43:04;;;;;;;3.25;0.98;;;23.30;99.90;;;;;;4968219;28;20056;-87
2022/06/22 15:45:51;;;;;;;3.57;0.87;;;23.60;99.90;;;;;;4881428;29;20041;-87
2022/06/22 15:51:56;;;;;;;5.32;1.08;;;23.90;99.90;;;;;;4981138;28;20521;-87
2022/06/22 15:54:34;;;;;;;3.47;1.42;;;24.00;99.90;;;;;;4965787;28;20374;-87
2022/06/22 15:57:47;;;;;;;;;;;;;;;;;;;;;
2022/06/22 16:04:26;;;;;;;4.82;1.42;;;23.70;99.90;;;;;;4999783;28;20436;-87
2022/06/22 16:07:35;;;;;;;5.78;1.42;;;23.50;99.90;;;;;;4968015;28;20490;-87
2022/06/22 16:13:27;;;;;;;4.85;1.05;;;23.10;99.90;;;;;;4971388;28;20037;-87
2022/06/22 16:17:31;;;;;;;2.22;0.80;;;22.80;99.90;;;;;;4885376;29;20037;-87
2022/06/22 16:20:13;;;;;;;6.88;1.00;;;22.90;99.90;;;;;;4944866;28;20034;-88
2022/06/22 16:22:47;;;;;;;6.20;1.50;;;23.00;99.90;;;;;;4981399;28;20022;-88
2022/06/22 16:25:23;;;;;;;2.03;1.00;;;23.10;99.90;;;;;;4998727;28;20027;-88
2022/06/22 16:28:03;;;;;;;3.72;1.08;;;23.00;99.90;;;;;;4978143;28;20022;-88
2022/06/22 16:30:56;;;;;;;3.35;1.13;;;22.90;99.90;;;;;;4982477;28;20030;-89
2022/06/22 16:34:05;;;;;;;2.95;1.00;;;22.80;99.90;;;;;;4986743;28;20089;-88
2022/06/22 16:36:37;;;;;;;2.05;0.75;;;22.80;99.90;;;;;;4983428;28;20045;-88
2022/06/22 16:39:32;;;;;;;5.03;1.25;;;22.60;99.90;;;;;;4988682;28;20093;-85
2022/06/22 16:42:17;;;;;;;3.97;1.20;;;22.60;99.90;;;;;;4988587;28;20026;-88
2022/06/22 16:45:12;;;;;;;2.70;1.00;;;22.50;99.90;;;;;;4965562;28;20033;-88
2022/06/22 16:47:59;;;;;;;3.55;1.33;;;22.40;99.90;;;;;;4992562;28;20135;-88
2022/06/22 16:50:38;;;;;;;6.55;1.33;;;22.40;99.90;;;;;;4976360;28;20491;-88
2022/06/22 16:53:05;;;;;;;2.20;1.05;;;22.40;99.90;;;;;;4979476;28;20069;-87
2022/06/22 16:55:40;;;;;;;2.85;1.00;;;22.30;99.90;;;;;;4970778;28;20027;-88
2022/06/22 16:58:07;;;;;;;4.00;1.08;;;22.30;99.90;;;;;;5003716;28;20104;-88
2022/06/22 17:00:51;;;;;;;5.32;1.20;;;22.20;99.90;;;;;;5001032;28;20030;-88
2022/06/22 17:03:39;;;;;;;5.13;1.30;;;22.30;99.90;;;;;;4975155;28;20030;-87
2022/06/22 17:06:18;;;;;;;3.05;0.88;;;22.30;99.90;;;;;;4979609;28;20046;-87
2022/06/22 17:08:58;;;;;;;1.83;0.80;;;22.50;99.90;;;;;;4998273;28;20019;-89
2022/06/22 17:11:26;;;;;;;4.25;1.38;;;22.40;99.90;;;;;;4980384;28;20077;-90
2022/06/22 17:13:54;;;;;;;1.92;0.80;;;22.40;99.90;;;;;;4979905;28;20077;-89
2022/06/22 17:16:26;;;;;;;5.07;1.23;;;22.40;99.90;;;;;;4983071;28;20030;-88
2022/06/22 17:19:14;;;;;;;5.88;1.33;;;22.40;99.90;;;;;;4998092;28;20035;-88
2022/06/22 17:22:00;;;;;;;7.68;1.25;;;22.40;99.90;;;;;;4981119;28;20034;-89
2022/06/22 17:24:46;;;;;;;4.22;1.40;;;22.40;99.90;;;;;;4988380;28;20181;-88
2022/06/22 17:27:16;;;;;;;3.15;0.80;;;22.40;99.90;;;;;;4996593;28;20083;-88
2022/06/22 17:30:11;;;;;;;4.35;1.13;;;22.40;99.90;;;;;;4977717;28;20081;-89
2022/06/22 17:32:53;;;;;;;2.17;1.15;;;22.40;99.90;;;;;;4986418;28;20030;-89
2022/06/22 17:36:15;;;;;;;5.78;1.95;;;22.50;99.90;;;;;;4995687;28;20120;-88
2022/06/22 17:44:45;;;;;;;3.28;1.10;;;22.20;99.90;;;;;;5027556;23;20045;-89
2022/06/22 17:48:08;;;;;;;3.95;1.60;;;22.00;99.90;;;;;;4993312;28;20102;-89
2022/06/22 17:51:04;;;;;;;7.28;1.73;;;21.80;99.90;;;;;;4924339;29;20111;-89
2022/06/22 17:56:46;;;;;;;8.25;1.67;;;21.60;99.90;;;;;;5006103;28;20052;-88
2022/06/22 17:59:44;;;;;;;5.28;2.10;;;21.50;99.90;;;;;;4994714;28;20109;-89
2022/06/22 18:05:20;;;;;;;4.38;1.95;;;21.30;99.90;;;;;;4980730;28;20025;-90
2022/06/22 18:08:16;;;;;;;3.97;1.45;;;21.40;99.90;;;;;;4996624;28;20017;-89
2022/06/22 18:10:56;;;;;;;4.60;1.73;;;21.40;99.90;;;;;;5014988;28;20029;-89
2022/06/22 18:26:57;;;;;;;;;;;;;;;;;;;;;
2022/06/22 21:14:57;;;;;;;3.83;2.08;;;19.90;99.90;;;;;;5022858;28;20089;-91
2022/06/22 21:21:13;;;;;;;4.45;1.40;;;19.70;99.90;;;;;;5015783;28;20573;-92
2022/06/22 21:28:05;;;;;;;;;;;;;;;;;;;;;
2022/06/22 21:31:10;;;;;;;5.65;1.85;;;19.80;99.90;;;;;;5014991;28;20090;-91
2022/06/22 21:38:22;;;;;;;;;;;;;;;;;;;;;
2022/06/22 21:53:06;;;;;;;;;;;;;;;;;;;;;
2022/06/22 22:06:21;;;;;;;5.57;1.90;;;19.90;99.90;;;;;;5027304;22;20075;-91
